createdAt,value
2023-03-15T00:00:04.660Z,92027.00
2023-03-15T00:01:04.700Z,92027.00
2023-03-15T00:02:04.767Z,92027.00
2023-03-15T00:03:04.796Z,92027.00
2023-03-15T00:04:04.854Z,92029.00
2023-03-15T00:05:04.882Z,92029.00
2023-03-15T00:06:04.923Z,92031.00
2023-03-15T00:07:04.997Z,92033.00
2023-03-15T00:08:05.027Z,92029.00
2023-03-15T00:09:05.056Z,92025.00
2023-03-15T00:10:05.340Z,92029.00
2023-03-15T00:11:05.153Z,92033.00
2023-03-15T00:12:05.190Z,92034.00
2023-03-15T00:13:05.253Z,92034.00
2023-03-15T00:14:05.279Z,92031.00
2023-03-15T00:15:05.336Z,92027.00
2023-03-15T00:16:05.415Z,92019.00
2023-03-15T00:17:05.442Z,92015.00
2023-03-15T00:18:05.478Z,92013.00
2023-03-15T00:19:05.560Z,92013.00
2023-03-15T00:20:05.576Z,92015.00
2023-03-15T00:21:05.611Z,92023.00
2023-03-15T00:22:05.661Z,92023.00
2023-03-15T00:23:05.706Z,92023.00
2023-03-15T00:24:05.753Z,92023.00
2023-03-15T00:25:05.791Z,92025.00
2023-03-15T00:26:05.837Z,92021.00
2023-03-15T00:27:05.896Z,92019.00
2023-03-15T00:28:05.954Z,92023.00
2023-03-15T00:29:05.997Z,92027.00
2023-03-15T00:30:06.041Z,92029.00
2023-03-15T00:31:06.172Z,92033.00
2023-03-15T00:32:06.134Z,92033.00
2023-03-15T00:33:06.188Z,92025.00
2023-03-15T00:34:06.235Z,92025.00
2023-03-15T00:35:06.276Z,92025.00
2023-03-15T00:36:06.355Z,92027.00
2023-03-15T00:37:06.464Z,92025.00
2023-03-15T00:38:06.421Z,92025.00
2023-03-15T00:39:06.475Z,92027.00
2023-03-15T00:40:07.363Z,92025.00
2023-03-15T00:41:06.564Z,92025.00
2023-03-15T00:42:06.610Z,92027.00
2023-03-15T00:43:06.660Z,92027.00
2023-03-15T00:44:06.706Z,92029.00
2023-03-15T00:45:06.744Z,92029.00
2023-03-15T00:46:06.842Z,92025.00
2023-03-15T00:47:07.349Z,92023.00
2023-03-15T00:48:06.895Z,92025.00
2023-03-15T00:49:06.939Z,92025.00
2023-03-15T00:50:07.048Z,92025.00
2023-03-15T00:51:07.013Z,92021.00
2023-03-15T00:52:07.060Z,92023.00
2023-03-15T00:53:07.177Z,92019.00
2023-03-15T00:54:07.153Z,92019.00
2023-03-15T00:55:07.193Z,92019.00
2023-03-15T00:56:07.272Z,92019.00
2023-03-15T00:57:07.303Z,92017.00
2023-03-15T00:58:07.355Z,92013.00
2023-03-15T00:59:07.399Z,92013.00
2023-03-15T01:00:07.454Z,92015.00
2023-03-15T01:01:07.500Z,92013.00
2023-03-15T01:02:07.606Z,92007.00
2023-03-15T01:03:07.749Z,92005.00
2023-03-15T01:04:07.649Z,92001.00
2023-03-15T01:05:07.702Z,92003.00
2023-03-15T01:06:07.749Z,92003.00
2023-03-15T01:07:07.806Z,91999.00
2023-03-15T02:04:10.632Z,92042.00
2023-03-15T02:05:10.684Z,92044.00
2023-03-15T02:06:10.735Z,92048.00
2023-03-15T02:07:10.789Z,92056.00
2023-03-15T02:08:10.842Z,92075.00
2023-03-15T02:09:10.885Z,92081.00
2023-03-15T02:10:10.948Z,92083.00
2023-03-15T02:11:10.975Z,92087.00
2023-03-15T02:12:11.017Z,92089.00
2023-03-15T02:13:11.030Z,92089.00
2023-03-15T02:14:11.039Z,92089.00
2023-03-15T02:15:11.084Z,92091.00
2023-03-15T02:16:11.105Z,92095.00
2023-03-15T02:17:11.112Z,92099.00
2023-03-15T02:18:11.145Z,92097.00
2023-03-15T02:19:11.178Z,92101.00
2023-03-15T02:20:11.206Z,92103.00
2023-03-15T02:21:11.273Z,92107.00
2023-03-15T02:22:11.351Z,92105.00
2023-03-15T02:23:11.325Z,92109.00
2023-03-15T02:24:11.367Z,92111.00
2023-03-15T02:25:11.423Z,92113.00
2023-03-15T02:26:11.463Z,92113.00
2023-03-15T02:27:11.539Z,92115.00
2023-03-15T02:28:11.555Z,92109.00
2023-03-15T02:29:11.599Z,92111.00
2023-03-15T02:30:11.666Z,92109.00
2023-03-15T02:31:11.701Z,92109.00
2023-03-15T02:32:11.922Z,92117.00
2023-03-15T02:33:11.881Z,92121.00
2023-03-15T02:34:11.832Z,92125.00
2023-03-15T02:35:11.867Z,92126.00
2023-03-15T02:36:11.929Z,92126.00
2023-03-15T02:37:11.922Z,92132.00
2023-03-15T02:38:11.965Z,92134.00
2023-03-15T02:39:12.029Z,92134.00
2023-03-15T02:41:12.121Z,92134.00
2023-03-15T02:42:12.280Z,92138.00
2023-03-15T02:43:12.211Z,92146.00
2023-03-15T02:44:12.260Z,92152.00
2023-03-15T02:45:12.296Z,92158.00
2023-03-15T02:46:12.393Z,92154.00
2023-03-15T02:47:12.380Z,92152.00
2023-03-15T02:48:12.419Z,92150.00
2023-03-15T02:49:12.455Z,92154.00
2023-03-15T02:51:12.529Z,92156.00
2023-03-15T02:52:12.564Z,92160.00
2023-03-15T02:53:12.597Z,92166.00
2023-03-15T02:54:12.628Z,92166.00
2023-03-15T02:55:12.663Z,92164.00
2023-03-15T02:56:12.702Z,92164.00
2023-03-15T02:57:12.730Z,92170.00
2023-03-15T02:58:12.834Z,92179.00
2023-03-15T03:00:12.845Z,92175.00
2023-03-15T03:01:12.966Z,92172.00
2023-03-15T03:03:12.944Z,92181.00
2023-03-15T03:04:12.984Z,92191.00
2023-03-15T03:05:13.018Z,92189.00
2023-03-15T03:07:13.090Z,92181.00
2023-03-15T06:28:20.620Z,92585.00
2023-03-15T06:29:20.670Z,92585.00
2023-03-15T06:30:20.711Z,92591.00
2023-03-15T06:31:20.752Z,92592.00
2023-03-15T06:32:20.762Z,92591.00
2023-03-15T06:33:20.794Z,92589.00
2023-03-15T06:34:20.806Z,92592.00
2023-03-15T06:35:20.818Z,92594.00
2023-03-15T06:36:20.825Z,92592.00
2023-03-15T06:37:34.340Z,92592.00
2023-03-15T06:38:21.838Z,92598.00
2023-03-15T06:39:20.767Z,92598.00
2023-03-15T06:40:20.757Z,92600.00
2023-03-15T06:41:20.745Z,92602.00
2023-03-15T06:42:21.835Z,92600.00
2023-03-15T06:43:20.682Z,92602.00
2023-03-15T06:44:21.482Z,92606.00
2023-03-15T06:45:20.630Z,92606.00
2023-03-15T06:49:21.487Z,92614.00
2023-03-15T07:08:20.993Z,92644.00
2023-03-15T07:11:21.023Z,92646.00
2023-03-15T07:20:20.629Z,92655.00
2023-03-15T07:21:20.652Z,92657.00
2023-03-15T07:22:20.730Z,92655.00
2023-03-15T07:23:20.652Z,92657.00
2023-03-15T07:24:20.682Z,92657.00
2023-03-15T07:25:20.743Z,92659.00
2023-03-15T07:26:20.727Z,92659.00
2023-03-15T07:29:20.834Z,92661.00
2023-03-15T07:31:20.845Z,92663.00
2023-03-15T07:32:20.867Z,92665.00
2023-03-15T07:34:20.799Z,92671.00
2023-03-15T07:35:20.790Z,92673.00
2023-03-15T07:37:20.747Z,92675.00
2023-03-15T07:38:20.696Z,92677.00
2023-03-15T07:39:20.655Z,92673.00
2023-03-15T07:40:20.657Z,92677.00
2023-03-15T07:49:20.636Z,92679.00
2023-03-15T07:50:20.726Z,92677.00
2023-03-15T07:51:20.705Z,92677.00
2023-03-15T07:52:20.711Z,92677.00
2023-03-15T07:53:20.775Z,92681.00
2023-03-15T07:54:20.747Z,92683.00
2023-03-15T07:55:21.435Z,92683.00
2023-03-15T07:56:20.793Z,92685.00
2023-03-15T07:57:20.842Z,92689.00
2023-03-15T07:58:20.842Z,92691.00
2023-03-15T07:59:20.865Z,92685.00
2023-03-15T08:00:20.884Z,92687.00
2023-03-15T08:01:20.918Z,92687.00
2023-03-15T08:02:21.033Z,92689.00
2023-03-15T08:03:21.051Z,92685.00
2023-03-15T08:04:20.975Z,92689.00
2023-03-15T08:05:20.995Z,92687.00
2023-03-15T08:06:21.012Z,92685.00
2023-03-15T08:07:21.031Z,92685.00
2023-03-15T08:08:21.052Z,92683.00
2023-03-15T08:09:21.079Z,92681.00
2023-03-15T08:10:21.082Z,92681.00
2023-03-15T08:11:21.113Z,92677.00
2023-03-15T08:12:21.116Z,92679.00
2023-03-15T08:13:21.153Z,92677.00
2023-03-15T08:14:21.166Z,92677.00
2023-03-15T08:15:21.168Z,92679.00
2023-03-15T08:16:21.232Z,92677.00
2023-03-15T08:17:21.224Z,92685.00
2023-03-15T08:18:21.254Z,92677.00
2023-03-15T08:19:21.282Z,92677.00
2023-03-15T08:20:21.293Z,92677.00
2023-03-15T08:21:21.319Z,92677.00
2023-03-15T08:22:21.336Z,92675.00
2023-03-15T08:23:21.351Z,92677.00
2023-03-15T08:24:22.022Z,92677.00
2023-03-15T08:25:21.391Z,92673.00
2023-03-15T08:26:21.416Z,92677.00
2023-03-15T08:27:21.527Z,92677.00
2023-03-15T08:28:21.466Z,92675.00
2023-03-15T08:29:21.499Z,92675.00
2023-03-15T08:30:21.513Z,92671.00
2023-03-15T08:31:21.718Z,92673.00
2023-03-15T08:32:21.702Z,92671.00
2023-03-15T08:33:21.620Z,92669.00
2023-03-15T08:34:21.649Z,92671.00
2023-03-15T08:35:21.743Z,92669.00
2023-03-15T08:36:21.805Z,92669.00
2023-03-15T08:37:21.744Z,92665.00
2023-03-15T08:38:21.846Z,92669.00
2023-03-15T08:39:21.807Z,92665.00
2023-03-15T08:40:21.827Z,92665.00
2023-03-15T08:41:21.809Z,92669.00
2023-03-15T08:42:21.808Z,92669.00
2023-03-15T08:43:21.812Z,92669.00
2023-03-15T08:44:21.791Z,92669.00
2023-03-15T08:45:21.812Z,92665.00
2023-03-15T08:46:22.101Z,92665.00
2023-03-15T08:47:21.785Z,92671.00
2023-03-15T08:48:21.781Z,92667.00
2023-03-15T08:49:21.794Z,92663.00
2023-03-15T08:50:22.533Z,92665.00
2023-03-15T08:51:21.778Z,92665.00
2023-03-15T08:52:21.725Z,92659.00
2023-03-15T08:53:21.705Z,92663.00
2023-03-15T08:54:21.702Z,92663.00
2023-03-15T08:55:22.532Z,92661.00
2023-03-15T08:56:21.667Z,92665.00
2023-03-15T08:57:21.672Z,92665.00
2023-03-15T08:58:21.691Z,92669.00
2023-03-15T08:59:31.507Z,92667.00
2023-03-15T09:00:22.666Z,92667.00
2023-03-15T09:01:21.593Z,92667.00
2023-03-15T09:02:21.586Z,92665.00
2023-03-15T09:03:21.526Z,92665.00
2023-03-15T09:04:21.558Z,92659.00
2023-03-15T09:05:21.478Z,92661.00
2023-03-15T09:06:21.535Z,92659.00
2023-03-15T09:07:22.030Z,92655.00
2023-03-15T09:08:21.366Z,92665.00
2023-03-15T09:09:21.415Z,92659.00
2023-03-15T09:10:21.310Z,92657.00
2023-03-15T09:11:22.043Z,92657.00
2023-03-15T09:12:21.256Z,92655.00
2023-03-15T09:13:21.214Z,92655.00
2023-03-15T09:14:21.188Z,92657.00
2023-03-15T09:15:21.160Z,92657.00
2023-03-15T09:16:21.175Z,92657.00
2023-03-15T09:17:21.107Z,92657.00
2023-03-15T09:18:21.152Z,92661.00
2023-03-15T09:19:21.052Z,92655.00
2023-03-15T09:20:21.028Z,92653.00
2023-03-15T09:21:21.005Z,92657.00
2023-03-15T09:22:38.117Z,92671.00
2023-03-15T09:23:21.936Z,92659.00
2023-03-15T09:24:20.984Z,92661.00
2023-03-15T09:25:20.887Z,92663.00
2023-03-15T09:26:20.869Z,92663.00
2023-03-15T09:27:20.876Z,92661.00
2023-03-15T09:28:20.800Z,92667.00
2023-03-15T09:29:20.781Z,92663.00
2023-03-15T09:30:20.746Z,92665.00
2023-03-15T09:31:20.775Z,92661.00
2023-03-15T09:32:20.745Z,92665.00
2023-03-15T09:33:20.672Z,92669.00
2023-03-15T09:34:21.853Z,92663.00
2023-03-15T09:35:20.628Z,92669.00
2023-03-15T09:42:21.121Z,92669.00
2023-03-15T09:44:21.047Z,92671.00
2023-03-15T09:56:21.066Z,92671.00
2023-03-15T10:00:22.043Z,92671.00
2023-03-15T10:16:20.693Z,92673.00
2023-03-15T10:32:21.304Z,92681.00
2023-03-15T10:34:21.309Z,92681.00
2023-03-15T10:43:21.621Z,92671.00
2023-03-15T10:44:21.576Z,92679.00
2023-03-15T10:45:21.620Z,92675.00
2023-03-15T10:46:21.691Z,92673.00
2023-03-15T10:47:24.539Z,92675.00
2023-03-15T10:48:21.633Z,92677.00
2023-03-15T10:49:21.650Z,92673.00
2023-03-15T10:51:21.540Z,92669.00
2023-03-15T10:52:21.544Z,92677.00
2023-03-15T10:53:21.528Z,92675.00
2023-03-15T10:55:21.395Z,92677.00
2023-03-15T10:56:21.369Z,92673.00
2023-03-15T10:57:21.335Z,92673.00
2023-03-15T10:58:21.305Z,92677.00
2023-03-15T10:59:21.245Z,92677.00
2023-03-15T11:00:22.002Z,92671.00
2023-03-15T11:01:22.024Z,92673.00
2023-03-15T11:02:21.135Z,92669.00
2023-03-15T11:03:21.137Z,92679.00
2023-03-15T11:04:21.066Z,92673.00
2023-03-15T11:05:21.008Z,92675.00
2023-03-15T11:06:20.976Z,92679.00
2023-03-15T11:07:20.939Z,92677.00
2023-03-15T11:08:20.904Z,92673.00
2023-03-15T11:09:20.868Z,92687.00
2023-03-15T11:10:20.834Z,92687.00
2023-03-15T11:12:20.754Z,92675.00
2023-03-15T11:13:20.742Z,92679.00
2023-03-15T11:14:20.672Z,92673.00
2023-03-15T11:15:21.589Z,92665.00
2023-03-15T11:16:20.789Z,92673.00
2023-03-15T11:26:31.600Z,92673.00
2023-03-15T11:27:21.150Z,92675.00
2023-03-15T11:28:20.082Z,92663.00
2023-03-15T11:29:20.037Z,92683.00
2023-03-15T11:30:20.003Z,92679.00
2023-03-15T13:37:17.242Z,92610.00
2023-03-15T13:38:17.210Z,92618.00
2023-03-15T13:39:17.162Z,92622.00
2023-03-15T13:40:17.128Z,92616.00
2023-03-15T13:41:17.083Z,92618.00
2023-03-15T13:42:17.045Z,92620.00
2023-03-15T13:43:17.008Z,92620.00
2023-03-15T13:44:17.014Z,92630.00
2023-03-15T13:45:16.920Z,92628.00
2023-03-15T13:46:17.013Z,92630.00
2023-03-15T13:47:16.827Z,92634.00
2023-03-15T13:48:16.779Z,92622.00
2023-03-15T13:49:16.736Z,92622.00
2023-03-15T13:50:16.708Z,92622.00
2023-03-15T13:51:16.660Z,92626.00
2023-03-15T13:52:16.606Z,92626.00
2023-03-15T13:53:16.570Z,92616.00
2023-03-15T13:54:16.527Z,92618.00
2023-03-15T13:55:16.482Z,92616.00
2023-03-15T13:56:16.440Z,92618.00
2023-03-15T13:57:16.414Z,92624.00
2023-03-15T13:58:16.342Z,92624.00
2023-03-15T13:59:16.312Z,92632.00
2023-03-15T14:00:16.333Z,92649.00
2023-03-15T14:01:16.214Z,92640.00
2023-03-15T14:02:16.661Z,92638.00
2023-03-15T14:03:16.129Z,92644.00
2023-03-15T14:04:16.045Z,92647.00
2023-03-15T14:15:15.456Z,92646.00
2023-03-15T14:16:15.423Z,92640.00
2023-03-15T14:17:15.366Z,92640.00
2023-03-15T14:18:15.278Z,92634.00
2023-03-15T14:19:15.227Z,92638.00
2023-03-15T14:20:15.173Z,92649.00
2023-03-15T14:21:15.121Z,92649.00
2023-03-15T14:22:15.088Z,92653.00
2023-03-15T14:23:15.033Z,92646.00
2023-03-15T14:24:14.978Z,92646.00
2023-03-15T14:25:14.921Z,92636.00
2023-03-15T14:26:14.889Z,92661.00
2023-03-15T14:27:14.859Z,92653.00
2023-03-15T14:28:14.841Z,92661.00
2023-03-15T14:29:14.803Z,92655.00
2023-03-15T14:30:14.773Z,92647.00
2023-03-15T14:31:14.792Z,92669.00
2023-03-15T14:32:14.712Z,92665.00
2023-03-15T14:33:14.682Z,92657.00
2023-03-15T14:34:14.669Z,92667.00
2023-03-15T14:35:14.638Z,92657.00
2023-03-15T14:36:14.646Z,92669.00
2023-03-15T14:37:14.593Z,92669.00
2023-03-15T14:38:14.589Z,92665.00
2023-03-15T14:39:14.556Z,92671.00
2023-03-15T14:40:15.341Z,92667.00
2023-03-15T14:41:14.533Z,92669.00
2023-03-15T14:42:14.525Z,92669.00
2023-03-15T14:43:14.497Z,92667.00
2023-03-15T14:44:14.491Z,92671.00
2023-03-15T14:45:14.488Z,92669.00
2023-03-15T14:46:14.510Z,92677.00
2023-03-15T14:47:14.480Z,92679.00
2023-03-15T14:48:14.492Z,92669.00
2023-03-15T14:49:14.482Z,92673.00
2023-03-15T14:50:14.487Z,92673.00
2023-03-15T14:51:14.833Z,92675.00
2023-03-15T14:52:14.505Z,92677.00
2023-03-15T14:53:14.513Z,92677.00
2023-03-15T14:54:14.447Z,92677.00
2023-03-15T14:55:14.441Z,92673.00
2023-03-15T14:56:14.482Z,92677.00
2023-03-15T14:57:14.403Z,92663.00
2023-03-15T14:58:14.693Z,92669.00
2023-03-15T14:59:14.370Z,92677.00
2023-03-15T15:00:14.296Z,92675.00
2023-03-15T15:01:14.307Z,92677.00
2023-03-15T15:02:14.221Z,92673.00
2023-03-15T15:03:14.131Z,92677.00
2023-03-15T15:04:14.068Z,92677.00
2023-03-15T15:05:14.025Z,92667.00
2023-03-15T15:06:13.978Z,92665.00
2023-03-15T15:07:13.925Z,92663.00
2023-03-15T15:08:13.940Z,92661.00
2023-03-15T15:09:13.856Z,92671.00
2023-03-15T15:10:13.809Z,92677.00
2023-03-15T15:11:13.783Z,92679.00
2023-03-15T15:12:13.761Z,92677.00
2023-03-15T15:13:13.716Z,92669.00
2023-03-15T15:14:13.694Z,92663.00
2023-03-15T15:15:13.673Z,92665.00
2023-03-15T15:16:13.661Z,92665.00
2023-03-15T15:17:13.633Z,92667.00
2023-03-15T15:18:13.613Z,92665.00
2023-03-15T15:19:13.588Z,92673.00
2023-03-15T15:20:13.567Z,92671.00
2023-03-15T15:21:13.580Z,92679.00
2023-03-15T15:22:13.620Z,92671.00
2023-03-15T15:23:13.536Z,92669.00
2023-03-15T15:24:13.529Z,92669.00
2023-03-15T15:25:13.504Z,92665.00
2023-03-15T15:26:13.493Z,92663.00
2023-03-15T15:27:13.489Z,92667.00
2023-03-15T15:28:15.867Z,92671.00
2023-03-15T15:29:14.416Z,92663.00
2023-03-15T15:30:16.355Z,92663.00
2023-03-15T15:31:13.333Z,92663.00
2023-03-15T15:32:13.337Z,92665.00
2023-03-15T15:33:13.281Z,92669.00
2023-03-15T15:34:13.175Z,92681.00
2023-03-15T15:35:13.107Z,92681.00
2023-03-15T15:36:13.091Z,92681.00
2023-03-15T15:37:13.007Z,92687.00
2023-03-15T15:38:12.955Z,92675.00
2023-03-15T15:39:12.903Z,92679.00
2023-03-15T15:40:12.850Z,92681.00
2023-03-15T15:41:12.839Z,92675.00
2023-03-15T15:42:12.771Z,92679.00
2023-03-15T15:43:12.721Z,92683.00
2023-03-15T15:44:12.737Z,92683.00
2023-03-15T15:45:12.614Z,92681.00
2023-03-15T15:46:12.651Z,92685.00
2023-03-15T15:47:12.531Z,92683.00
2023-03-15T15:48:12.487Z,92685.00
2023-03-15T15:49:12.456Z,92685.00
2023-03-15T15:50:12.411Z,92687.00
2023-03-15T15:51:12.354Z,92685.00
2023-03-15T15:52:12.309Z,92693.00
2023-03-15T15:53:12.353Z,92689.00
2023-03-15T15:54:12.225Z,92693.00
2023-03-15T15:55:12.184Z,92693.00
2023-03-15T15:56:12.146Z,92694.00
2023-03-15T15:57:12.102Z,92693.00
2023-03-15T15:58:12.179Z,92694.00
2023-03-15T15:59:12.011Z,92694.00
2023-03-15T16:00:11.972Z,92691.00
2023-03-15T16:01:12.008Z,92691.00
2023-03-15T16:02:12.060Z,92693.00
2023-03-15T16:03:11.884Z,92696.00
2023-03-15T16:04:11.805Z,92689.00
2023-03-15T16:05:11.771Z,92694.00
2023-03-15T16:06:11.734Z,92702.00
2023-03-15T16:07:11.691Z,92700.00
2023-03-15T16:08:11.674Z,92704.00
2023-03-15T16:09:11.630Z,92694.00
2023-03-15T16:10:11.572Z,92696.00
2023-03-15T16:11:11.564Z,92698.00
2023-03-15T16:12:11.504Z,92700.00
2023-03-15T16:13:11.471Z,92708.00
2023-03-15T16:14:11.434Z,92704.00
2023-03-15T16:15:11.389Z,92704.00
2023-03-15T16:16:11.441Z,92700.00
2023-03-15T16:17:11.312Z,92702.00
2023-03-15T16:18:11.290Z,92704.00
2023-03-15T16:19:11.232Z,92704.00
2023-03-15T16:20:11.194Z,92710.00
2023-03-15T16:21:11.155Z,92710.00
2023-03-15T16:22:11.117Z,92708.00
2023-03-15T16:23:11.070Z,92714.00
2023-03-15T16:24:11.036Z,92714.00
2023-03-15T16:25:10.987Z,92714.00
2023-03-15T16:26:11.036Z,92716.00
2023-03-15T16:27:11.001Z,92718.00
2023-03-15T16:28:10.917Z,92720.00
2023-03-15T16:29:11.714Z,92724.00
2023-03-15T16:30:10.880Z,92724.00
2023-03-15T16:31:10.923Z,92726.00
2023-03-15T16:32:18.035Z,92728.00
2023-03-15T16:33:11.827Z,92728.00
2023-03-15T16:34:10.847Z,92734.00
2023-03-15T16:35:10.735Z,92734.00
2023-03-15T16:36:11.248Z,92734.00
2023-03-15T16:37:10.664Z,92734.00
2023-03-15T16:38:10.630Z,92736.00
2023-03-15T17:15:10.626Z,92785.00
2023-03-15T17:16:10.686Z,92785.00
2023-03-15T17:17:10.662Z,92789.00
2023-03-15T17:18:10.697Z,92791.00
2023-03-15T17:19:10.753Z,92791.00
2023-03-15T17:20:10.744Z,92795.00
2023-03-15T17:21:10.775Z,92795.00
2023-03-15T17:22:10.794Z,92796.00
2023-03-15T17:23:10.823Z,92795.00
2023-03-15T17:24:10.855Z,92796.00
2023-03-15T17:25:10.901Z,92796.00
2023-03-15T17:26:10.916Z,92798.00
2023-03-15T17:27:10.934Z,92798.00
2023-03-15T17:28:10.966Z,92798.00
2023-03-15T17:29:11.013Z,92800.00
2023-03-15T17:30:11.031Z,92802.00
2023-03-15T17:31:24.576Z,92804.00
2023-03-15T17:32:12.092Z,92804.00
2023-03-15T17:33:11.101Z,92808.00
2023-03-15T17:34:10.989Z,92814.00
2023-03-15T17:35:10.974Z,92814.00
2023-03-15T17:36:10.967Z,92814.00
2023-03-15T17:37:10.916Z,92818.00
2023-03-15T17:38:10.890Z,92820.00
2023-03-15T17:39:10.861Z,92820.00
2023-03-15T17:40:10.877Z,92824.00
2023-03-15T17:41:10.876Z,92828.00
2023-03-15T17:42:10.824Z,92828.00
2023-03-15T17:43:10.867Z,92828.00
2023-03-15T17:47:11.080Z,92826.00
2023-03-15T17:48:11.075Z,92828.00
2023-03-15T17:49:11.085Z,92832.00
2023-03-15T17:50:11.160Z,92832.00
2023-03-15T17:51:11.183Z,92830.00
2023-03-15T17:52:11.214Z,92834.00
2023-03-15T17:54:11.322Z,92847.00
2023-03-15T17:55:11.337Z,92847.00
2023-03-15T17:56:11.380Z,92849.00
2023-03-15T17:57:11.422Z,92847.00
2023-03-15T17:58:11.477Z,92845.00
2023-03-15T17:59:11.525Z,92849.00
2023-03-15T18:00:11.557Z,92847.00
2023-03-15T18:01:11.618Z,92849.00
2023-03-15T18:02:11.641Z,92853.00
2023-03-15T18:03:11.682Z,92851.00
2023-03-15T18:04:11.798Z,92853.00
2023-03-15T18:05:11.806Z,92849.00
2023-03-15T18:06:12.755Z,92849.00
2023-03-15T18:07:11.900Z,92847.00
2023-03-15T18:08:11.925Z,92853.00
2023-03-15T18:09:11.914Z,92851.00
2023-03-15T18:10:11.948Z,92853.00
2023-03-15T18:11:11.988Z,92857.00
2023-03-15T18:12:14.340Z,92857.00
2023-03-15T18:13:12.017Z,92859.00
2023-03-15T18:14:11.990Z,92859.00
2023-03-15T18:15:11.966Z,92859.00
2023-03-15T18:16:12.005Z,92861.00
2023-03-15T18:17:11.957Z,92865.00
2023-03-15T18:18:11.899Z,92869.00
2023-03-15T18:19:11.964Z,92867.00
2023-03-15T18:20:11.843Z,92871.00
2023-03-15T18:21:11.809Z,92873.00
2023-03-15T18:22:11.794Z,92869.00
2023-03-15T18:23:11.778Z,92869.00
2023-03-15T18:24:11.740Z,92867.00
2023-03-15T18:25:11.726Z,92867.00
2023-03-15T18:26:11.741Z,92865.00
2023-03-15T18:27:11.675Z,92865.00
2023-03-15T18:28:11.658Z,92865.00
2023-03-15T18:29:11.620Z,92867.00
2023-03-15T18:30:11.597Z,92871.00
2023-03-15T18:31:11.570Z,92871.00
2023-03-15T18:32:11.621Z,92871.00
2023-03-15T18:33:11.606Z,92873.00
2023-03-15T18:34:11.469Z,92873.00
2023-03-15T18:35:11.458Z,92875.00
2023-03-15T18:36:11.480Z,92877.00
2023-03-15T18:37:11.398Z,92877.00
2023-03-15T18:38:11.401Z,92875.00
2023-03-15T18:39:11.435Z,92877.00
2023-03-15T18:40:11.466Z,92877.00
2023-03-15T18:41:11.313Z,92877.00
2023-03-15T18:42:11.285Z,92875.00
2023-03-15T18:43:11.281Z,92873.00
2023-03-15T18:44:11.238Z,92873.00
2023-03-15T18:45:11.233Z,92869.00
2023-03-15T18:46:11.348Z,92869.00
2023-03-15T18:47:11.335Z,92859.00
2023-03-15T18:48:11.384Z,92861.00
2023-03-15T18:49:11.420Z,92863.00
2023-03-15T18:50:11.570Z,92865.00
2023-03-15T18:51:11.523Z,92871.00
2023-03-15T18:52:11.573Z,92869.00
2023-03-15T19:27:12.450Z,92884.00
2023-03-15T19:28:12.488Z,92886.00
2023-03-15T19:29:12.490Z,92888.00
2023-03-15T19:30:12.470Z,92890.00
2023-03-15T19:31:12.544Z,92892.00
2023-03-15T19:32:12.466Z,92890.00
2023-03-15T19:33:12.565Z,92892.00
2023-03-15T19:34:12.467Z,92890.00
2023-03-15T19:35:12.481Z,92890.00
2023-03-15T19:36:12.443Z,92888.00
2023-03-15T19:37:12.397Z,92892.00
2023-03-15T19:38:12.374Z,92892.00
2023-03-15T19:39:12.378Z,92890.00
2023-03-15T19:40:12.370Z,92892.00
2023-03-15T19:41:13.133Z,92894.00
2023-03-15T19:42:12.379Z,92896.00
2023-03-15T19:43:12.289Z,92896.00
2023-03-15T19:44:12.263Z,92894.00
2023-03-15T19:45:12.345Z,92894.00
2023-03-15T19:46:12.284Z,92896.00
2023-03-15T19:47:12.240Z,92894.00
2023-03-15T19:48:15.384Z,92892.00
2023-03-15T19:49:12.205Z,92896.00
2023-03-15T19:50:12.193Z,92896.00
2023-03-15T19:51:12.168Z,92896.00
2023-03-15T19:52:12.178Z,92898.00
2023-03-15T19:53:12.143Z,92898.00
2023-03-15T19:54:12.109Z,92894.00
2023-03-15T19:55:12.105Z,92896.00
2023-03-15T19:56:12.105Z,92896.00
2023-03-15T19:57:12.074Z,92892.00
2023-03-15T19:58:12.041Z,92892.00
2023-03-15T19:59:12.047Z,92892.00
2023-03-15T20:00:12.022Z,92892.00
2023-03-15T20:01:12.019Z,92890.00
2023-03-15T20:02:11.972Z,92888.00
2023-03-15T20:03:11.952Z,92890.00
2023-03-15T20:04:11.966Z,92890.00
2023-03-15T20:05:11.924Z,92890.00
2023-03-15T20:06:11.897Z,92890.00
2023-03-15T20:07:11.879Z,92892.00
2023-03-15T20:08:11.884Z,92892.00
2023-03-15T20:09:11.850Z,92894.00
2023-03-15T20:10:11.838Z,92896.00
2023-03-15T20:11:11.821Z,92896.00
2023-03-15T20:12:11.871Z,92896.00
2023-03-15T20:13:11.789Z,92892.00
2023-03-15T20:14:11.760Z,92888.00
2023-03-15T20:15:11.751Z,92896.00
2023-03-15T20:16:11.796Z,92890.00
2023-03-15T20:17:11.713Z,92890.00
2023-03-15T20:18:11.692Z,92888.00
2023-03-15T20:19:11.679Z,92888.00
2023-03-15T20:20:11.651Z,92888.00
2023-03-15T20:21:11.635Z,92890.00
2023-03-15T20:22:11.626Z,92890.00
2023-03-15T20:23:11.620Z,92890.00
2023-03-15T20:24:11.597Z,92892.00
2023-03-15T20:25:11.580Z,92892.00
2023-03-15T20:26:11.609Z,92892.00
2023-03-15T20:27:11.530Z,92890.00
2023-03-15T20:28:11.537Z,92892.00
2023-03-15T20:29:11.495Z,92892.00
2023-03-15T20:30:11.472Z,92894.00
2023-03-15T20:31:11.513Z,92892.00
2023-03-15T20:32:11.433Z,92894.00
2023-03-15T20:33:11.408Z,92896.00
2023-03-15T20:34:11.391Z,92894.00
2023-03-15T20:35:11.368Z,92898.00
2023-03-15T20:36:11.437Z,92900.00
2023-03-15T20:37:11.335Z,92898.00
2023-03-15T20:38:11.818Z,92898.00
2023-03-15T20:39:11.284Z,92900.00
2023-03-15T20:40:11.370Z,92906.00
2023-03-15T20:41:11.253Z,92906.00
2023-03-15T20:42:11.236Z,92908.00
2023-03-15T20:43:12.143Z,92910.00
2023-03-15T20:44:11.204Z,92908.00
2023-03-15T20:45:11.164Z,92908.00
2023-03-15T20:46:11.140Z,92910.00
2023-03-15T20:47:11.121Z,92912.00
2023-03-15T20:48:11.188Z,92910.00
2023-03-15T20:49:11.092Z,92910.00
2023-03-15T20:50:11.179Z,92912.00
2023-03-15T20:51:11.100Z,92914.00
2023-03-15T20:52:11.064Z,92916.00
2023-03-15T20:53:11.018Z,92918.00
2023-03-15T20:54:11.014Z,92920.00
2023-03-15T20:55:10.989Z,92922.00
2023-03-15T20:56:10.964Z,92922.00
2023-03-15T20:57:10.944Z,92922.00
2023-03-15T20:58:10.950Z,92922.00
2023-03-15T20:59:10.923Z,92920.00
2023-03-15T21:00:10.896Z,92922.00
2023-03-15T21:01:10.924Z,92920.00
2023-03-15T21:02:10.889Z,92918.00
2023-03-15T21:03:10.976Z,92918.00
2023-03-15T21:04:10.822Z,92918.00
2023-03-15T21:05:10.808Z,92916.00
2023-03-15T21:06:10.795Z,92914.00
2023-03-15T21:07:10.781Z,92910.00
2023-03-15T21:08:10.754Z,92910.00
2023-03-15T21:09:10.768Z,92912.00
2023-03-15T21:10:10.766Z,92912.00
2023-03-15T21:11:10.795Z,92916.00
2023-03-15T21:12:10.718Z,92916.00
2023-03-15T21:13:10.702Z,92918.00
2023-03-15T21:14:10.746Z,92920.00
2023-03-15T21:15:10.680Z,92920.00
2023-03-15T21:16:10.728Z,92918.00
2023-03-15T21:17:10.656Z,92916.00
2023-03-15T21:18:10.642Z,92916.00
2023-03-15T21:19:10.616Z,92916.00
2023-03-15T21:22:10.598Z,92922.00
2023-03-15T21:57:11.337Z,92926.00
2023-03-15T21:58:10.846Z,92928.00
2023-03-15T22:10:10.630Z,92928.00
2023-03-15T22:11:10.618Z,92928.00
2023-03-15T22:12:10.628Z,92928.00
2023-03-15T22:13:10.641Z,92930.00
2023-03-15T22:14:10.635Z,92930.00
2023-03-15T22:15:10.655Z,92930.00
2023-03-15T22:16:10.680Z,92930.00
2023-03-15T22:17:10.757Z,92928.00
2023-03-15T22:18:10.680Z,92928.00